createdAt,value
2023-06-12T00:24:34.006Z,4.1
2023-06-12T00:54:36.929Z,4.1
2023-06-12T01:24:39.685Z,4.2
2023-06-12T01:54:42.132Z,4.0
2023-06-12T02:24:44.610Z,4.6
2023-06-12T02:54:47.003Z,4.6
2023-06-12T03:24:49.232Z,4.7
2023-06-12T03:54:51.265Z,4.9
2023-06-12T04:24:53.077Z,4.7
2023-06-12T04:54:54.790Z,5.4
2023-06-12T05:24:56.423Z,5.2
2023-06-12T05:54:58.172Z,5.2
2023-06-12T06:25:00.372Z,5.1
2023-06-12T06:55:03.150Z,5.3
2023-06-12T07:25:06.374Z,4.9
2023-06-12T07:55:10.645Z,5.7
2023-06-12T08:25:14.825Z,5.7
2023-06-12T08:55:19.387Z,5.8
2023-06-12T09:25:24.445Z,5.9
2023-06-12T09:55:29.735Z,6.0
2023-06-12T10:25:35.263Z,6.1
2023-06-12T10:55:40.731Z,5.0
2023-06-12T11:25:46.692Z,4.6
2023-06-12T12:25:59.161Z,5.3
2023-06-12T12:56:05.594Z,3.9
2023-06-12T13:26:12.069Z,3.5
2023-06-12T13:56:18.827Z,3.8
2023-06-12T14:26:25.585Z,4.2
2023-06-12T14:56:32.367Z,3.4
2023-06-12T15:26:39.066Z,3.7
2023-06-12T15:56:45.805Z,3.1
2023-06-12T16:26:52.428Z,3.3
2023-06-12T16:56:58.960Z,3.6
2023-06-12T17:27:05.319Z,3.8
2023-06-12T17:57:11.435Z,4.5
2023-06-12T18:27:17.210Z,4.4
2023-06-12T18:57:22.571Z,5.4
2023-06-12T19:27:27.527Z,6.8
2023-06-12T19:57:32.161Z,6.6
2023-06-12T20:27:36.561Z,6.2
2023-06-12T20:57:40.578Z,6.0
2023-06-12T21:27:44.255Z,5.4
2023-06-12T21:57:47.774Z,4.6
2023-06-12T22:27:51.160Z,4.2
2023-06-12T22:57:54.274Z,4.3
2023-06-12T23:27:57.171Z,4.2
2023-06-12T23:57:59.951Z,4.5
